Flight Track Log - Related Links

Times and Time Zones

All times are in EDT time to prevent confusion due to time zone crossing. See the AAY825 flight status page for this flight to view local times or setup timezone preferences in your user account.

Time Position Orientation Groundspeed Altitude Reporting Facility
EDT Latitude Longitude Course Direction KTS MPH feet Rate Location/Type
Mon 11:36:59 AM 41.5264 -93.6753 232° Southwest 171 197 1,600  Level Minneapolis Center
Mon 11:37:30 AM 41.5100 -93.7033 232° Southwest 178 205 2,600 1,652 Climbing Minneapolis Center
Mon 11:38:08 AM 41.4789 -93.7483 227° Southwest 205 236 3,500 2,220 Climbing Minneapolis Center
Mon 11:39:10 AM 41.4133 -93.7072 155° Southeast 268 308 6,300 2,516 Climbing Minneapolis Center
Mon 11:40:12 AM 41.3628 -93.6292 131° Southeast 279 321 8,700 2,226 Climbing Minneapolis Center
Mon 11:41:14 AM 41.3047 -93.5392 131° Southeast 304 350 10,900 1,584 Climbing Minneapolis Center
Mon 11:42:17 AM 41.2219 -93.4697 148° Southeast 346 398 12,000 1,392 Climbing Minneapolis Center
Mon 11:43:19 AM 41.1422 -93.3606 134° Southeast 403 464 13,800 2,021 Climbing Minneapolis Center
Mon 11:43:52 AM 41.0950 -93.2897 131° Southeast 419 482 15,200 2,211 Climbing Chicago Center
Mon 11:44:54 AM 41.0156 -93.1692 131° Southeast 429 494 17,300 1,887 Climbing Chicago Center
Mon 11:45:56 AM 40.9306 -93.0453 132° Southeast 449 517 19,100 1,632 Climbing Chicago Center
Mon 11:46:59 AM 40.8436 -92.9183 132° Southeast 463 533 20,700 1,536 Climbing Chicago Center
Mon 11:48:01 AM 40.7358 -92.7600 132° Southeast 483 556 22,300 1,645 Climbing Chicago Center
Mon 11:49:03 AM 40.6447 -92.6236 131° Southeast 493 567 24,100 1,306 Climbing Chicago Center
Mon 11:50:05 AM 40.5525 -92.4889 132° Southeast 493 567 25,000 1,210 Climbing Chicago Center
Mon 11:51:07 AM 40.4586 -92.3544 133° Southeast 493 567 26,600 1,480 Climbing Chicago Center
Mon 11:52:35 AM 40.3267 -92.1667 133° Southeast 495 570 28,700 1,500 Climbing Kansas City Center
Mon 11:53:35 AM 40.2347 -92.0356 133° Southeast 494 568 30,300 1,140 Climbing Kansas City Center
Mon 11:54:36 AM 40.1447 -91.9069 132° Southeast 484 557 31,000 336 Climbing Kansas City Center
Mon 11:55:40 AM 40.0336 -91.7519 133° Southeast 486 559 31,000  Level Kansas City Center
Mon 11:56:42 AM 39.9433 -91.6225 132° Southeast 486 559 31,000  Level Kansas City Center
Mon 11:57:45 AM 39.8525 -91.4942 133° Southeast 486 559 31,000  Level Kansas City Center
Mon 11:58:46 AM 39.7608 -91.3644 133° Southeast 487 560 31,000  Level Kansas City Center
Mon 11:59:50 AM 39.6639 -91.2300 133° Southeast 487 560 31,000  Level Kansas City Center
Mon 12:00:50 PM 39.5722 -91.1011 133° Southeast 487 560 31,000  Level Kansas City Center
Mon 12:01:54 PM 39.4781 -90.9736 134° Southeast 487 560 31,000  Level Kansas City Center
Mon 12:02:54 PM 39.3642 -90.8197 134° Southeast 489 563 31,000  Level Kansas City Center
Mon 12:03:58 PM 39.2683 -90.6889 133° Southeast 496 571 31,000  Level Kansas City Center
Mon 12:04:58 PM 39.1725 -90.5581 133° Southeast 498 573 31,000  Level Kansas City Center
Mon 12:06:02 PM 39.0775 -90.4267 133° Southeast 498 573 31,000 145 Level Kansas City Center
Mon 12:07:02 PM 38.9692 -90.2819 134° Southeast 499 574 31,300 774 Climbing Kansas City Center
Mon 12:08:06 PM 38.8744 -90.1550 134° Southeast 499 574 32,600 816 Climbing Kansas City Center
Mon 12:09:07 PM 38.7806 -90.0306 134° Southeast 492 566 33,000 195 Climbing Kansas City Center
Mon 12:10:09 PM 38.6761 -89.8886 133° Southeast 487 560 33,000  Level Kansas City Center
Mon 12:11:13 PM 38.5872 -89.7669 133° Southeast 487 560 33,000  Level Kansas City Center
Mon 12:12:13 PM 38.4889 -89.6397 135° Southeast 486 559 33,000  Level Kansas City Center
Mon 12:13:17 PM 38.3931 -89.5186 135° Southeast 486 559 33,000  Level Kansas City Center
Mon 12:14:17 PM 38.3042 -89.3936 132° Southeast 481 554 33,000  Level Kansas City Center
Mon 12:15:21 PM 38.2056 -89.2761 137° Southeast 485 558 33,000  Level Kansas City Center
Mon 12:16:22 PM 38.1114 -89.1533 134° Southeast 486 559 33,000  Level Kansas City Center
Mon 12:17:25 PM 38.0003 -89.0050 134° Southeast 482 555 33,000  Level Kansas City Center
Mon 12:18:27 PM 37.9044 -88.8839 135° Southeast 491 565 33,000  Level Kansas City Center
Mon 12:19:28 PM 37.8111 -88.7617 134° Southeast 488 562 33,000  Level Kansas City Center
Mon 12:20:29 PM 37.7122 -88.6353 135° Southeast 475 547 33,000  Level Kansas City Center
Mon 12:21:32 PM 37.6175 -88.5156 135° Southeast 475 547 33,000  Level Kansas City Center
Mon 12:22:33 PM 37.5122 -88.3792 134° Southeast 482 555 33,000  Level Kansas City Center
Mon 12:23:36 PM 37.4167 -88.2594 135° Southeast 483 556 33,000  Level Kansas City Center
Mon 12:24:57 PM 37.2831 -88.0925 135° Southeast 484 557 33,000  Level Memphis Center
Mon 12:25:59 PM 37.1911 -87.9742 134° Southeast 482 555 33,000  Level Memphis Center
Mon 12:27:01 PM 37.0964 -87.8564 135° Southeast 479 551 33,000  Level Memphis Center
Mon 12:28:03 PM 37.0019 -87.7378 135° Southeast 479 551 33,000  Level Memphis Center
Mon 12:29:06 PM 36.9061 -87.6206 136° Southeast 479 551 33,000  Level Memphis Center
Mon 12:30:08 PM 36.8114 -87.5028 135° Southeast 478 550 33,000  Level Memphis Center
Mon 12:31:10 PM 36.7008 -87.3658 135° Southeast 478 550 33,000  Level Memphis Center
Mon 12:32:12 PM 36.6056 -87.2497 136° Southeast 478 550 33,000  Level Memphis Center
Mon 12:33:14 PM 36.5097 -87.1339 136° Southeast 478 550 33,000  Level Memphis Center
Mon 12:34:16 PM 36.4150 -87.0189 136° Southeast 477 549 33,000  Level Memphis Center
Mon 12:35:18 PM 36.3094 -86.8933 136° Southeast 477 549 33,000  Level Memphis Center
Mon 12:36:20 PM 36.2114 -86.7753 136° Southeast 478 550 33,000  Level Memphis Center
Mon 12:37:22 PM 36.1106 -86.6717 140° Southeast 472 543 33,000  Level Memphis Center
Mon 12:38:24 PM 35.9894 -86.6078 157° South 472 543 33,000  Level Memphis Center
Mon 12:39:26 PM 35.8675 -86.5497 159° South 466 536 33,000  Level Memphis Center
Mon 12:40:28 PM 35.7456 -86.4903 158° South 466 536 33,000  Level Memphis Center
Mon 12:41:30 PM 35.6247 -86.4314 158° South 465 535 33,000  Level Memphis Center
Mon 12:42:32 PM 35.4856 -86.3622 158° South 463 533 33,000  Level Memphis Center
Mon 12:43:34 PM 35.3689 -86.3064 159° South 452 520 33,000  Level Memphis Center
Mon 12:44:36 PM 35.2528 -86.2486 158° South 451 519 33,000  Level Memphis Center
Mon 12:45:38 PM 35.1469 -86.1983 159° South 450 518 33,000  Level Memphis Center
Mon 12:46:40 PM 35.0086 -86.1300 158° South 450 518 33,000  Level Memphis Center
Mon 12:47:42 PM 34.8917 -86.0739 159° South 450 518 33,000  Level Memphis Center
Mon 12:48:44 PM 34.7689 -86.0153 159° South 450 518 33,000  Level Memphis Center
Mon 12:49:46 PM 34.6531 -85.9603 159° South 449 517 33,000  Level Memphis Center
Mon 12:50:50 PM 34.5378 -85.9022 157° South 452 520 33,000  Level Atlanta Center
Mon 12:51:50 PM 34.4239 -85.8469 158° South 447 514 33,000  Level Atlanta Center
Mon 12:52:50 PM 34.3119 -85.7967 160° South 447 514 33,000  Level Atlanta Center
Mon 12:53:50 PM 34.1936 -85.7439 160° South 442 509 33,000  Level Atlanta Center
Mon 12:54:50 PM 34.0817 -85.6917 159° South 442 509 33,000  Level Atlanta Center
Mon 12:55:50 PM 33.9633 -85.6342 158° South 447 514 33,000  Level Atlanta Center
Mon 12:56:50 PM 33.8472 -85.5819 160° South 441 507 33,000  Level Atlanta Center
Mon 12:57:50 PM 33.7331 -85.5275 158° South 447 514 33,000  Level Atlanta Center
Mon 12:58:50 PM 33.6022 -85.4678 159° South 447 514 33,000  Level Atlanta Center
Mon 12:59:50 PM 33.4881 -85.4139 159° South 447 514 33,000  Level Atlanta Center
Mon 01:00:50 PM 33.3719 -85.3597 159° South 447 514 33,000  Level Atlanta Center
Mon 01:01:50 PM 33.2575 -85.3058 159° South 447 514 33,000  Level Atlanta Center
Mon 01:02:50 PM 33.1392 -85.2494 158° South 447 514 33,000  Level Atlanta Center
Mon 01:03:50 PM 33.0353 -85.1983 158° South 447 514 33,000  Level Atlanta Center
Mon 01:04:50 PM 32.9167 -85.1572 164° South 447 514 33,000  Level Atlanta Center
Mon 01:05:50 PM 32.8083 -85.1286 167° South 441 507 33,000  Level Atlanta Center
Mon 01:06:50 PM 32.6794 -85.0778 162° South 436 502 33,000  Level Atlanta Center
Mon 01:07:50 PM 32.5567 -85.0369 164° South 435 501 33,000  Level Atlanta Center
Mon 01:08:50 PM 32.4422 -84.9961 163° South 435 501 33,000  Level Atlanta Center
Mon 01:09:50 PM 32.3214 -84.9556 164° South 435 501 33,000  Level Atlanta Center
Mon 01:11:51 PM 32.0864 -84.8789 165° South 439 505 33,000  Level Jacksonville Center
Mon 01:12:51 PM 31.9658 -84.8369 164° South 439 505 33,000  Level Jacksonville Center
Mon 01:13:51 PM 31.8494 -84.8003 165° South 433 498 33,000  Level Jacksonville Center
Mon 01:14:51 PM 31.7353 -84.7614 164° South 433 498 33,000  Level Jacksonville Center
Mon 01:15:52 PM 31.6189 -84.7247 165° South 433 498 33,000  Level Jacksonville Center
Mon 01:16:51 PM 31.5003 -84.6858 164° South 433 498 33,000  Level Jacksonville Center
Mon 01:17:51 PM 31.3839 -84.6472 164° South 433 498 33,000  Level Jacksonville Center
Mon 01:18:51 PM 31.2675 -84.6086 164° South 433 498 33,000  Level Jacksonville Center
Mon 01:19:52 PM 31.1511 -84.5700 164° South 433 498 33,000  Level Jacksonville Center
Mon 01:20:52 PM 31.0347 -84.5317 164° South 433 498 33,000  Level Jacksonville Center
Mon 01:21:52 PM 30.9203 -84.4933 164° South 433 498 33,000  Level Jacksonville Center
Mon 01:22:52 PM 30.8039 -84.4550 164° South 433 498 33,000  Level Jacksonville Center
Mon 01:23:52 PM 30.6875 -84.4192 165° South 433 498 33,000  Level Jacksonville Center
Mon 01:24:52 PM 30.5711 -84.3811 164° South 433 498 33,000  Level Jacksonville Center
Mon 01:25:52 PM 30.4653 -84.3144 151° Southeast 433 498 33,000  Level Jacksonville Center
Mon 01:26:52 PM 30.3553 -84.2431 151° Southeast 440 506 33,000  Level Jacksonville Center
Mon 01:27:52 PM 30.2497 -84.1742 151° Southeast 445 512 33,000  Level Jacksonville Center
Mon 01:28:51 PM 30.1417 -84.1031 150° Southeast 445 512 33,000  Level Jacksonville Center
Mon 01:29:51 PM 30.0317 -84.0322 151° Southeast 450 518 33,000  Level Jacksonville Center
Mon 01:30:51 PM 29.9239 -83.9639 151° Southeast 450 518 33,000  Level Jacksonville Center
Mon 01:31:52 PM 29.8136 -83.8931 151° Southeast 450 518 33,000 -248 Level Jacksonville Center
Mon 01:32:52 PM 29.7078 -83.8253 151° Southeast 450 518 32,500 -900 Descending Jacksonville Center
Mon 01:33:52 PM 29.5956 -83.7525 151° Southeast 455 524 31,200 -1,412 Descending Jacksonville Center
Mon 01:34:51 PM 29.4875 -83.6822 150° Southeast 455 524 29,700 -1,513 Descending Jacksonville Center
Mon 01:35:51 PM 29.3750 -83.6122 152° Southeast 455 524 28,200 -1,636 Descending Jacksonville Center
Mon 01:36:52 PM 29.2503 -83.5328 151° Southeast 461 531 26,400 -1,091 Descending Jacksonville Center
Mon 01:37:52 PM 29.1400 -83.4608 150° Southeast 461 531 26,000 -1,250 Descending Jacksonville Center
Mon 01:38:52 PM 29.0339 -83.3914 150° Southeast 454 522 23,900 -2,168 Descending Jacksonville Center
Mon 01:39:51 PM 28.9233 -83.3219 151° Southeast 454 522 21,700 -2,218 Descending Jacksonville Center
Mon 01:40:51 PM 28.8194 -83.2553 151° Southeast 447 514 19,500 -2,182 Descending Jacksonville Center
Mon 01:41:52 PM 28.7172 -83.1908 151° Southeast 435 501 17,300 -2,011 Descending Jacksonville Center
Mon 01:43:56 PM 28.5167 -83.0667 151° Southeast 396 456 13,300 -1,467 Descending Tampa TRACON
Mon 01:44:56 PM 28.4333 -83.0000 145° Southeast 373 429 12,800 -857 Descending Tampa TRACON
Mon 01:46:02 PM 28.3333 -82.9500 156° South 326 375 11,500 -1,200 Descending Tampa TRACON
Mon 01:46:56 PM 28.2667 -82.9167 156° South 302 348 10,400 -1,421 Descending Tampa TRACON
Mon 01:47:56 PM 28.1833 -82.8667 152° Southeast 296 341 8,800 -1,700 Descending Tampa TRACON
Mon 01:48:56 PM 28.1167 -82.8333 156° South 297 342 7,000 -1,714 Descending Tampa TRACON
Mon 01:50:02 PM 28.0333 -82.7833 152° Southeast 295 339 5,200 -1,550 Descending Tampa TRACON
Mon 01:50:56 PM 27.9667 -82.7667 168° South 284 327 3,900 -1,316 Descending Tampa TRACON
Mon 01:51:56 PM 27.8833 -82.7500 170° South 263 303 2,700 -1,190 Descending Tampa TRACON
Mon 01:53:02 PM 27.8333 -82.7167 149° Southeast 210 242 1,400 -887 Descending Tampa TRACON
Mon 01:53:51 PM 27.8500 -82.6833 61° Northeast 150 173 1,000 -550 Descending Tampa TRACON
Mon 01:55:02 PM 27.8833 -82.6833 360° North 122 140 300 -592 Descending Tampa TRACON

Login

Don't have an account? Register now (free) for customized features, flight alerts, and more!